Flight Track Log - Related Links

Times and Time Zones

All times are in EDT time to prevent confusion due to time zone crossing. See the SWA561 flight status page for this flight to view local times or setup timezone preferences in your user account.

Time Position Orientation Groundspeed Altitude Reporting Facility
EDT Latitude Longitude Course Direction KTS MPH feet Rate Location/Type
Fri 08:44:02 PM 31.8050 -106.3947 235° Southwest 160 184 4,400  Level Albuquerque Center
Fri 08:44:30 PM 31.7944 -106.4128 235° Southwest 165 190 5,500 1,900 Climbing Albuquerque Center
Fri 08:45:02 PM 31.7822 -106.4453 246° West 199 229 6,300 1,645 Climbing Albuquerque Center
Fri 08:45:32 PM 31.7686 -106.4739 241° Southwest 216 249 7,200 2,571 Climbing Albuquerque Center
Fri 08:46:33 PM 31.7875 -106.5497 286° West 261 300 10,200 2,878 Climbing Albuquerque Center
Fri 08:47:35 PM 31.8350 -106.6394 302° West 301 346 13,100 2,806 Climbing Albuquerque Center
Fri 08:48:37 PM 31.8553 -106.7483 282° West 336 387 16,000 2,903 Climbing Albuquerque Center
Fri 08:49:39 PM 31.8797 -106.8625 284° West 356 410 19,100 2,878 Climbing Albuquerque Center
Fri 08:50:40 PM 31.9144 -106.9764 290° West 367 422 21,900 2,537 Climbing Albuquerque Center
Fri 08:51:42 PM 31.9483 -107.0944 289° West 375 432 24,300 2,177 Climbing Albuquerque Center
Fri 08:52:44 PM 31.9836 -107.2186 289° West 391 450 26,400 2,000 Climbing Albuquerque Center
Fri 08:53:45 PM 32.0206 -107.3458 289° West 401 461 28,400 1,756 Climbing Albuquerque Center
Fri 08:54:47 PM 32.0581 -107.4789 288° West 415 478 30,000 1,403 Climbing Albuquerque Center
Fri 08:55:49 PM 32.0964 -107.6117 289° West 425 489 31,300 1,854 Climbing Albuquerque Center
Fri 08:56:50 PM 32.1408 -107.7681 289° West 420 483 33,800 1,317 Climbing Albuquerque Center
Fri 08:57:52 PM 32.1767 -107.8969 288° West 415 478 34,000 780 Climbing Albuquerque Center
Fri 08:58:53 PM 32.2125 -108.0256 288° West 414 476 35,400 976 Climbing Albuquerque Center
Fri 08:59:55 PM 32.2489 -108.1528 289° West 410 472 36,000 290 Climbing Albuquerque Center
Fri 09:00:57 PM 32.2833 -108.2789 288° West 405 466 36,000  Level Albuquerque Center
Fri 09:01:58 PM 32.3181 -108.4047 288° West 404 465 36,000  Level Albuquerque Center
Fri 09:03:00 PM 32.3567 -108.5442 288° West 403 464 36,000  Level Albuquerque Center
Fri 09:04:02 PM 32.3914 -108.6700 288° West 404 465 36,000  Level Albuquerque Center
Fri 09:05:03 PM 32.4258 -108.7967 288° West 406 467 36,000 146 Level Albuquerque Center
Fri 09:06:05 PM 32.4600 -108.9233 288° West 406 467 36,300 976 Climbing Albuquerque Center
Fri 09:07:06 PM 32.4950 -109.0506 288° West 407 468 38,000 829 Climbing Albuquerque Center
Fri 09:08:08 PM 32.5272 -109.1706 288° West 391 450 38,000  Level Albuquerque Center
Fri 09:09:09 PM 32.5653 -109.3136 288° West 383 441 38,000  Level Albuquerque Center
Fri 09:10:11 PM 32.5981 -109.4331 288° West 382 440 38,000  Level Albuquerque Center
Fri 09:11:13 PM 32.6314 -109.5542 288° West 386 444 38,000  Level Albuquerque Center
Fri 09:12:14 PM 32.6622 -109.6733 287° West 381 438 38,000  Level Albuquerque Center
Fri 09:13:16 PM 32.6947 -109.7944 288° West 386 444 38,000  Level Albuquerque Center
Fri 09:14:17 PM 32.7239 -109.9125 286° West 378 435 38,000  Level Albuquerque Center
Fri 09:15:19 PM 32.7658 -110.0567 289° West 386 444 38,000  Level Albuquerque Center
Fri 09:16:20 PM 32.7972 -110.1764 287° West 385 443 38,000  Level Albuquerque Center
Fri 09:17:22 PM 32.8283 -110.2969 287° West 383 441 38,000  Level Albuquerque Center
Fri 09:18:23 PM 32.8603 -110.4181 287° West 387 445 38,000  Level Albuquerque Center
Fri 09:19:25 PM 32.8917 -110.5406 287° West 389 448 38,000  Level Albuquerque Center
Fri 09:20:26 PM 32.9225 -110.6622 287° West 388 447 38,000  Level Albuquerque Center
Fri 09:21:28 PM 32.9611 -110.7917 290° West 386 444 38,000  Level Albuquerque Center
Fri 09:22:29 PM 33.0011 -110.9128 292° West 390 449 38,000  Level Albuquerque Center
Fri 09:23:31 PM 33.0375 -111.0322 290° West 386 444 38,000  Level Albuquerque Center
Fri 09:24:32 PM 33.0747 -111.1519 290° West 385 443 38,000  Level Albuquerque Center
Fri 09:25:34 PM 33.1119 -111.2739 290° West 389 448 38,000  Level Albuquerque Center
Fri 09:26:35 PM 33.1575 -111.4200 290° West 390 449 38,000  Level Albuquerque Center
Fri 09:27:37 PM 33.1947 -111.5433 290° West 393 452 38,000  Level Albuquerque Center
Fri 09:28:38 PM 33.2322 -111.6675 290° West 395 455 38,000  Level Albuquerque Center
Fri 09:29:40 PM 33.2694 -111.7911 290° West 396 456 38,000  Level Albuquerque Center
Fri 09:30:41 PM 33.3078 -111.9150 290° West 396 456 38,000  Level Albuquerque Center
Fri 09:31:43 PM 33.3442 -112.0383 289° West 394 453 38,000  Level Albuquerque Center
Fri 09:32:45 PM 33.3808 -112.1642 289° West 396 456 38,000  Level Albuquerque Center
Fri 09:33:46 PM 33.4181 -112.2875 290° West 395 455 38,000  Level Albuquerque Center
Fri 09:34:47 PM 33.4539 -112.4100 289° West 390 449 38,000  Level Albuquerque Center
Fri 09:35:49 PM 33.4978 -112.5578 290° West 391 450 38,000  Level Albuquerque Center
Fri 09:36:50 PM 33.5319 -112.6747 289° West 390 449 38,000  Level Albuquerque Center
Fri 09:37:52 PM 33.5683 -112.7969 290° West 390 449 38,000  Level Albuquerque Center
Fri 09:38:54 PM 33.6053 -112.9219 290° West 396 456 38,000  Level Albuquerque Center
Fri 09:39:55 PM 33.6419 -113.0536 289° West 395 455 38,000  Level Albuquerque Center
Fri 09:40:56 PM 33.6789 -113.1789 290° West 397 457 38,000  Level Albuquerque Center
Fri 09:41:58 PM 33.7156 -113.3053 289° West 400 460 38,000  Level Albuquerque Center
Fri 09:42:59 PM 33.7519 -113.4322 289° West 401 461 38,000  Level Albuquerque Center
Fri 09:44:01 PM 33.7878 -113.5567 289° West 397 457 38,000  Level Albuquerque Center
Fri 09:45:02 PM 33.8144 -113.7100 282° West 392 451 38,000  Level Albuquerque Center
Fri 09:46:04 PM 33.8344 -113.8383 281° West 392 451 38,000  Level Albuquerque Center
Fri 09:47:05 PM 33.8544 -113.9661 281° West 390 449 38,000  Level Albuquerque Center
Fri 09:48:07 PM 33.8717 -114.0931 279° West 387 445 38,000  Level Albuquerque Center
Fri 09:49:08 PM 33.8928 -114.2172 282° West 381 438 38,000 -390 Level Albuquerque Center
Fri 09:50:10 PM 33.9069 -114.3600 277° West 386 444 37,200 -889 Descending Albuquerque Center
Fri 09:50:56 PM 33.9133 -114.4619 274° West 387 445 36,400 -1,000 Descending Los Angeles Center
Fri 09:51:58 PM 33.9217 -114.5906 275° West 388 447 35,400 -976 Descending Los Angeles Center
Fri 09:52:59 PM 33.9286 -114.7158 274° West 380 437 34,400 -976 Descending Los Angeles Center
Fri 09:54:01 PM 33.9347 -114.8397 273° West 374 430 33,400 -1,113 Descending Los Angeles Center
Fri 09:55:03 PM 33.9408 -114.9614 273° West 368 423 32,100 -1,645 Descending Los Angeles Center
Fri 09:56:05 PM 33.9486 -115.0836 274° West 367 422 30,000 -1,024 Descending Los Angeles Center
Fri 09:57:06 PM 33.9567 -115.2253 274° West 356 410 30,000  Level Los Angeles Center
Fri 09:58:08 PM 33.9631 -115.3428 274° West 353 406 30,000  Level Los Angeles Center
Fri 09:59:10 PM 33.9708 -115.4633 274° West 360 414 30,000  Level Los Angeles Center
Fri 10:00:12 PM 33.9675 -115.5972 268° West 401 461 30,000  Level Los Angeles Center
Fri 10:01:13 PM 33.9672 -115.7303 270° West 399 459 30,000  Level Los Angeles Center
Fri 10:02:15 PM 33.9672 -115.8631 270° West 397 457 30,000  Level Los Angeles Center
Fri 10:03:17 PM 33.9669 -115.9925 270° West 392 451 30,000 -435 Level Los Angeles Center
Fri 10:04:19 PM 33.9658 -116.1514 270° West 396 456 29,100 -976 Descending Los Angeles Center
Fri 10:05:20 PM 33.9639 -116.2822 269° West 394 453 28,000 -1,024 Descending Los Angeles Center
Fri 10:06:22 PM 33.9631 -116.4103 270° West 385 443 27,000 -968 Descending Los Angeles Center
Fri 10:07:24 PM 33.9622 -116.5375 270° West 381 438 26,000 -1,024 Descending Los Angeles Center
Fri 10:08:25 PM 33.9736 -116.6586 277° West 368 423 24,900 -1,512 Descending Los Angeles Center
Fri 10:09:27 PM 33.9892 -116.7758 279° West 359 413 22,900 -2,129 Descending Los Angeles Center
Fri 10:10:29 PM 33.9756 -116.9117 263° West 339 390 20,500 -2,182 Descending Los Angeles Center
Fri 10:11:06 PM 33.9667 -116.9833 262° West 327 376 19,300 -1,891 Descending Southern California TRACON
Fri 10:12:01 PM 33.9500 -117.0833 259° West 323 372 17,600 -1,200 Descending Southern California TRACON
Fri 10:13:01 PM 33.9500 -117.1833 270° West 300 345 17,000 -528 Descending Southern California TRACON
Fri 10:14:06 PM 33.9333 -117.2833 259° West 288 331 16,500 -905 Descending Southern California TRACON
Fri 10:15:07 PM 33.9333 -117.3833 270° West 280 322 15,100 -1,438 Descending Southern California TRACON
Fri 10:16:07 PM 33.9667 -117.4667 296° West 278 320 13,600 -1,500 Descending Southern California TRACON
Fri 10:17:07 PM 34.0000 -117.5500 296° West 269 310 12,100 -1,440 Descending Southern California TRACON
Fri 10:18:12 PM 34.0333 -117.6500 292° West 321 369 10,600 -1,200 Descending Southern California TRACON
Fri 10:19:07 PM 34.0167 -117.7167 253° West 247 284 9,700 -1,091 Descending Southern California TRACON
Fri 10:20:13 PM 34.0167 -117.8167 270° West 258 297 8,400 -1,190 Descending Southern California TRACON
Fri 10:21:13 PM 34.0000 -117.9000 256° West 262 302 7,200 -1,000 Descending Southern California TRACON
Fri 10:22:13 PM 34.0000 -117.9833 270° West 234 269 6,400 -895 Descending Southern California TRACON
Fri 10:23:07 PM 33.9833 -118.0500 253° West 222 255 5,500 -850 Descending Southern California TRACON
Fri 10:24:13 PM 33.9833 -118.1167 270° West 184 212 4,700 -743 Descending Southern California TRACON
Fri 10:24:52 PM 33.9786 -118.1511 261° West 184 212 4,200 -950 Descending Los Angeles Center
Fri 10:25:54 PM 33.9703 -118.2208 262° West 178 205 3,100 -968 Descending Los Angeles Center
Fri 10:26:56 PM 33.9653 -118.2753 264° West 172 198 2,200 -774 Descending Los Angeles Center
Fri 10:27:58 PM 33.9606 -118.3192 263° West 152 175 1,500 -683 Descending Los Angeles Center
Fri 10:28:59 PM 33.9572 -118.3636 265° West 139 160 800 -634 Descending Los Angeles Center
Fri 10:30:01 PM 33.9511 -118.4122 261° West 137 158 200 -581 Descending Los Angeles Center
Fri 10:32:00 PM 33.9425 -118.4081 180° South  Level Estimated

Login

Don't have an account? Register now (free) for customized features, flight alerts, and more!